createdAt,value
2023-04-29T00:01:20.008Z,78.87
2023-04-29T00:03:47.653Z,78.85
2023-04-29T00:06:16.011Z,78.91
2023-04-29T00:08:44.216Z,78.83
2023-04-29T00:11:12.695Z,79.09
2023-04-29T00:13:42.027Z,78.77
2023-04-29T00:16:12.829Z,81.54
2023-04-29T00:18:41.231Z,82.75
2023-04-29T00:21:08.747Z,82.46
2023-04-29T00:23:39.759Z,81.64
2023-04-29T00:26:08.050Z,80.12
2023-04-29T00:28:36.199Z,79.99
2023-04-29T00:31:03.827Z,80.01
2023-04-29T00:33:35.572Z,80.12
2023-04-29T00:36:03.420Z,79.78
2023-04-29T00:38:31.283Z,78.92
2023-04-29T00:41:03.676Z,78.60
2023-04-29T00:43:31.468Z,80.66
2023-04-29T00:46:04.901Z,79.69
2023-04-29T00:48:33.203Z,80.26
2023-04-29T00:51:02.063Z,79.79
2023-04-29T00:53:29.523Z,78.81
2023-04-29T00:55:57.347Z,79.42
2023-04-29T00:58:33.637Z,79.17
2023-04-29T01:01:01.497Z,79.40
2023-04-29T01:03:33.022Z,79.20
2023-04-29T01:06:31.980Z,79.33
2023-04-29T01:09:11.643Z,78.81
2023-04-29T01:11:43.076Z,77.35
2023-04-29T01:14:10.888Z,75.97
2023-04-29T01:16:53.822Z,75.70
2023-04-29T01:19:47.501Z,75.43
2023-04-29T01:22:14.749Z,76.16
2023-04-29T01:24:43.066Z,75.84
2023-04-29T01:27:51.157Z,76.26
2023-04-29T01:30:18.643Z,75.91
2023-04-29T01:33:28.725Z,76.24
2023-04-29T01:36:14.044Z,75.95
2023-04-29T01:38:58.932Z,75.06
2023-04-29T01:41:34.632Z,74.90
2023-04-29T01:44:02.530Z,74.46
2023-04-29T01:46:30.391Z,74.56
2023-04-29T01:48:58.177Z,75.16
2023-04-29T01:51:25.975Z,74.74
2023-04-29T01:53:57.029Z,74.47
2023-04-29T01:56:24.717Z,73.67
2023-04-29T01:58:52.582Z,73.52
2023-04-29T02:01:20.494Z,73.36
2023-04-29T02:03:48.446Z,74.28
2023-04-29T02:06:17.016Z,73.72
2023-04-29T02:08:45.506Z,74.25
2023-04-29T02:11:13.438Z,74.08
2023-04-29T02:13:41.361Z,74.07
2023-04-29T02:16:32.289Z,74.46
2023-04-29T02:19:00.147Z,74.19
2023-04-29T02:21:27.653Z,74.33
2023-04-29T02:23:55.210Z,73.90
2023-04-29T02:26:23.705Z,74.43
2023-04-29T02:28:52.692Z,74.92
2023-04-29T02:31:20.311Z,75.50
2023-04-29T02:33:51.895Z,75.05
2023-04-29T02:36:42.515Z,74.82
2023-04-29T02:39:10.181Z,75.15
2023-04-29T02:41:38.051Z,75.58
2023-04-29T02:44:06.044Z,75.52
2023-04-29T02:46:35.653Z,76.82
2023-04-29T02:49:04.027Z,77.17
2023-04-29T02:51:37.267Z,78.46
2023-04-29T02:54:05.275Z,79.69
2023-04-29T02:56:32.699Z,78.35
2023-04-29T02:59:06.361Z,78.83
2023-04-29T03:01:34.372Z,79.22
2023-04-29T03:04:02.593Z,79.83
2023-04-29T03:06:30.641Z,82.20
2023-04-29T03:08:58.784Z,83.49
2023-04-29T03:11:26.687Z,83.52
2023-04-29T03:13:54.388Z,83.61
2023-04-29T03:16:22.192Z,83.53
2023-04-29T03:18:49.884Z,83.89
2023-04-29T03:21:17.801Z,83.50
2023-04-29T03:23:45.444Z,83.03
2023-04-29T03:26:13.469Z,83.26
2023-04-29T03:28:41.581Z,83.69
2023-04-29T03:31:11.742Z,84.60
2023-04-29T03:33:39.224Z,85.20
2023-04-29T03:36:09.454Z,84.95
2023-04-29T03:38:37.172Z,84.99
2023-04-29T03:41:05.145Z,85.03
2023-04-29T03:43:32.732Z,84.74
2023-04-29T03:46:00.651Z,84.84
2023-04-29T03:48:28.430Z,84.81
2023-04-29T03:50:56.352Z,85.15
2023-04-29T03:53:24.125Z,85.84
2023-04-29T03:55:51.619Z,86.21
2023-04-29T03:58:19.689Z,86.49
2023-04-29T04:00:47.524Z,86.59
2023-04-29T04:03:15.182Z,86.13
2023-04-29T04:05:42.748Z,85.88
2023-04-29T04:08:14.526Z,86.05
2023-04-29T04:10:42.344Z,86.65
2023-04-29T04:13:10.466Z,86.47
2023-04-29T04:15:38.376Z,86.53
2023-04-29T04:18:06.589Z,86.59
2023-04-29T04:20:34.469Z,86.36
2023-04-29T04:23:02.609Z,85.41
2023-04-29T04:25:30.402Z,85.48
2023-04-29T04:27:58.336Z,85.51
2023-04-29T04:30:26.187Z,86.53
2023-04-29T04:32:54.802Z,86.33
2023-04-29T04:35:22.809Z,86.06
2023-04-29T04:37:50.759Z,86.61
2023-04-29T04:40:41.190Z,85.96
2023-04-29T04:43:09.161Z,85.73
2023-04-29T04:45:37.359Z,85.49
2023-04-29T04:48:20.220Z,85.10
2023-04-29T04:50:47.679Z,83.67
2023-04-29T04:53:15.645Z,81.70
2023-04-29T04:55:43.473Z,82.06
2023-04-29T04:58:11.429Z,83.86
2023-04-29T05:00:39.266Z,83.88
2023-04-29T05:03:07.238Z,84.86
2023-04-29T05:05:35.251Z,84.73
2023-04-29T05:08:03.122Z,85.45
2023-04-29T05:10:30.779Z,83.88
2023-04-29T05:12:58.926Z,83.82
2023-04-29T05:15:27.439Z,84.02
2023-04-29T05:17:55.091Z,83.24
2023-04-29T05:20:28.252Z,83.37
2023-04-29T05:22:56.070Z,83.43
2023-04-29T05:25:23.793Z,82.87
2023-04-29T05:27:55.650Z,82.06
2023-04-29T05:30:23.900Z,81.27
2023-04-29T05:32:51.779Z,81.69
2023-04-29T05:35:19.464Z,81.86
2023-04-29T05:37:47.373Z,81.75
2023-04-29T05:40:15.310Z,81.92
2023-04-29T05:42:43.696Z,83.33
2023-04-29T05:45:20.085Z,83.36
2023-04-29T05:47:59.531Z,81.47
2023-04-29T05:50:27.523Z,81.89
2023-04-29T05:52:56.502Z,81.86
2023-04-29T05:55:26.922Z,81.27
2023-04-29T05:57:55.165Z,79.56
2023-04-29T06:00:31.960Z,79.93
2023-04-29T06:02:59.543Z,79.87
2023-04-29T06:05:27.794Z,79.65
2023-04-29T06:07:55.421Z,78.83
2023-04-29T06:10:23.311Z,78.49
2023-04-29T06:12:51.910Z,78.45
2023-04-29T06:15:19.728Z,76.84
2023-04-29T06:17:47.554Z,76.62
2023-04-29T06:20:17.148Z,76.54
2023-04-29T06:22:46.225Z,77.08
2023-04-29T06:25:14.296Z,77.01
2023-04-29T06:27:42.383Z,76.36
2023-04-29T06:30:13.300Z,75.48
2023-04-29T06:32:40.999Z,74.49
2023-04-29T06:35:08.912Z,73.89
2023-04-29T06:37:37.986Z,73.04
2023-04-29T06:40:10.027Z,73.28
2023-04-29T06:42:37.836Z,72.69
2023-04-29T06:45:08.179Z,71.61
2023-04-29T06:47:36.330Z,70.18
2023-04-29T06:50:05.289Z,69.86
2023-04-29T06:52:33.515Z,69.78
2023-04-29T06:55:00.922Z,71.40
2023-04-29T06:57:28.676Z,71.96
2023-04-29T06:59:56.613Z,71.80
2023-04-29T07:02:24.744Z,71.38
2023-04-29T07:04:52.873Z,71.20
2023-04-29T07:07:20.750Z,71.01
2023-04-29T07:09:52.092Z,69.79
2023-04-29T07:12:20.122Z,68.80
2023-04-29T07:14:48.027Z,67.28
2023-04-29T07:17:16.137Z,65.81
2023-04-29T07:19:43.778Z,65.75
2023-04-29T07:22:11.601Z,64.39
2023-04-29T07:24:43.000Z,63.61
2023-04-29T07:27:11.340Z,63.14
2023-04-29T07:29:38.851Z,61.97
2023-04-29T07:32:06.925Z,62.42
2023-04-29T07:34:34.783Z,61.95
2023-04-29T07:37:02.768Z,61.46
2023-04-29T07:39:30.802Z,61.68
2023-04-29T07:42:00.338Z,60.19
2023-04-29T07:44:28.190Z,60.02
2023-04-29T07:46:55.687Z,58.68
2023-04-29T07:49:23.157Z,58.53
2023-04-29T07:51:53.984Z,59.18
2023-04-29T07:54:22.356Z,58.34
2023-04-29T07:56:50.711Z,59.24
2023-04-29T07:59:18.647Z,58.90
2023-04-29T08:01:46.072Z,58.76
2023-04-29T08:04:13.990Z,59.25
2023-04-29T08:06:44.612Z,59.21
2023-04-29T08:09:32.360Z,60.38
2023-04-29T08:12:00.203Z,61.14
2023-04-29T08:14:27.800Z,58.97
2023-04-29T08:16:55.805Z,58.74
2023-04-29T08:19:23.738Z,57.62
2023-04-29T08:21:51.891Z,56.69
2023-04-29T08:24:20.660Z,56.63
2023-04-29T08:26:48.400Z,58.68
2023-04-29T08:29:16.301Z,57.04
2023-04-29T08:31:44.445Z,57.82
2023-04-29T08:34:12.763Z,55.97
2023-04-29T08:36:40.571Z,55.91
2023-04-29T08:39:08.050Z,54.55
2023-04-29T08:41:35.541Z,52.30
2023-04-29T08:44:05.088Z,50.81
2023-04-29T08:46:32.963Z,50.05
2023-04-29T08:49:00.935Z,50.65
2023-04-29T08:51:29.044Z,51.26
2023-04-29T08:53:57.409Z,50.64
2023-04-29T08:56:25.735Z,50.02
2023-04-29T08:58:54.834Z,49.06
2023-04-29T09:01:37.249Z,48.56
2023-04-29T09:04:27.073Z,49.27
2023-04-29T09:06:57.624Z,48.87
2023-04-29T09:09:27.966Z,47.76
2023-04-29T09:11:56.609Z,47.78
2023-04-29T09:14:24.474Z,46.86
2023-04-29T09:16:52.005Z,45.86
2023-04-29T09:19:49.063Z,45.60
2023-04-29T09:22:16.474Z,44.80
2023-04-29T09:24:45.685Z,45.29
2023-04-29T09:27:13.048Z,44.47
2023-04-29T09:29:41.898Z,44.51
2023-04-29T09:32:23.487Z,45.58
2023-04-29T09:34:53.220Z,43.76
2023-04-29T09:37:29.255Z,44.80
2023-04-29T09:39:56.749Z,44.14
2023-04-29T09:42:24.484Z,45.57
2023-04-29T09:44:55.437Z,47.11
2023-04-29T09:47:35.689Z,47.34
2023-04-29T09:50:22.317Z,47.55
2023-04-29T09:52:50.760Z,46.50
2023-04-29T09:55:18.808Z,46.05
2023-04-29T09:57:46.651Z,47.54
2023-04-29T10:00:17.744Z,45.17
2023-04-29T10:02:51.054Z,44.67
2023-04-29T10:05:19.268Z,44.44
2023-04-29T10:07:50.276Z,43.46
2023-04-29T10:10:17.892Z,45.10
2023-04-29T10:12:44.961Z,45.64
2023-04-29T10:15:29.025Z,44.91
2023-04-29T10:18:03.835Z,44.49
2023-04-29T10:20:30.980Z,43.58
2023-04-29T10:22:59.989Z,44.59
2023-04-29T10:25:31.132Z,44.65
2023-04-29T10:27:58.605Z,44.15
2023-04-29T10:30:26.071Z,45.25
2023-04-29T10:32:53.526Z,44.33
2023-04-29T10:35:24.544Z,44.52
2023-04-29T10:37:51.865Z,42.35
2023-04-29T10:40:30.805Z,42.39
2023-04-29T10:42:58.938Z,43.54
2023-04-29T10:45:31.821Z,43.41
2023-04-29T10:48:10.558Z,42.03
2023-04-29T10:51:00.713Z,41.85
2023-04-29T10:53:28.216Z,42.08
2023-04-29T10:56:06.277Z,42.24
2023-04-29T10:58:46.165Z,41.62
2023-04-29T11:01:17.552Z,41.50
2023-04-29T11:04:00.769Z,42.74
2023-04-29T11:06:36.555Z,41.01
2023-04-29T11:09:30.679Z,41.64
2023-04-29T11:12:05.510Z,42.79
2023-04-29T11:14:36.631Z,42.52
2023-04-29T11:17:16.869Z,42.33
2023-04-29T11:19:46.224Z,41.56
2023-04-29T11:22:27.669Z,42.14
2023-04-29T11:25:07.382Z,41.47
2023-04-29T11:27:35.983Z,41.23
2023-04-29T11:30:05.061Z,41.83
2023-04-29T11:32:40.569Z,40.22
2023-04-29T11:35:12.836Z,40.14
2023-04-29T11:37:41.191Z,39.74
2023-04-29T11:40:10.027Z,40.55
2023-04-29T11:42:41.434Z,42.21
2023-04-29T11:45:10.727Z,39.90
2023-04-29T11:47:38.476Z,39.60
2023-04-29T11:50:11.112Z,36.85
2023-04-29T11:52:38.984Z,36.81
2023-04-29T11:55:09.314Z,36.16
2023-04-29T11:57:36.691Z,36.71
2023-04-29T12:00:07.995Z,34.67
2023-04-29T12:02:37.096Z,35.24
2023-04-29T12:05:09.419Z,34.89
2023-04-29T12:07:37.699Z,33.01
2023-04-29T12:10:09.320Z,32.38
2023-04-29T12:12:36.436Z,31.74
2023-04-29T12:15:06.913Z,33.07
2023-04-29T12:17:35.024Z,32.02
2023-04-29T12:20:02.466Z,32.68
2023-04-29T12:22:32.918Z,32.09
2023-04-29T12:25:00.799Z,31.76
2023-04-29T12:27:28.798Z,30.49
2023-04-29T12:29:57.722Z,30.94
2023-04-29T12:32:25.812Z,30.79
2023-04-29T12:34:53.881Z,30.11
2023-04-29T12:37:26.821Z,30.36
2023-04-29T12:39:55.806Z,32.15
2023-04-29T12:42:23.670Z,31.69
2023-04-29T12:44:51.567Z,30.74
2023-04-29T12:47:21.695Z,32.12
2023-04-29T12:49:50.210Z,31.36
2023-04-29T12:52:17.614Z,30.40
2023-04-29T12:54:45.114Z,30.64
2023-04-29T12:57:12.909Z,30.04
2023-04-29T12:59:43.311Z,29.61
2023-04-29T13:02:10.929Z,29.46
2023-04-29T13:04:40.109Z,28.69
2023-04-29T13:07:07.786Z,30.13
2023-04-29T13:09:37.856Z,28.77
2023-04-29T13:12:08.206Z,28.34
2023-04-29T13:14:35.710Z,29.53
2023-04-29T13:17:04.189Z,29.31
2023-04-29T13:19:48.217Z,29.05
2023-04-29T13:22:19.103Z,29.71
2023-04-29T13:24:46.978Z,30.61
2023-04-29T13:27:14.922Z,30.53
2023-04-29T13:29:42.779Z,31.24
2023-04-29T13:32:10.609Z,32.02
2023-04-29T13:34:38.606Z,31.55
2023-04-29T13:37:06.416Z,32.04
2023-04-29T13:39:37.903Z,31.91
2023-04-29T13:42:10.370Z,32.84
2023-04-29T13:44:51.602Z,32.28
2023-04-29T13:47:25.183Z,31.86
2023-04-29T13:50:32.940Z,31.74
2023-04-29T13:55:49.474Z,30.76
2023-04-29T13:58:41.053Z,31.78
2023-04-29T14:01:11.300Z,31.38
2023-04-29T14:03:36.045Z,32.21
2023-04-29T14:06:07.597Z,30.31
2023-04-29T14:08:35.510Z,30.81
2023-04-29T14:11:03.441Z,31.29
2023-04-29T14:13:31.424Z,31.69
2023-04-29T14:15:59.921Z,31.79
2023-04-29T14:18:27.580Z,33.36
2023-04-29T14:20:55.343Z,33.93
2023-04-29T14:23:22.858Z,32.72
2023-04-29T14:25:50.309Z,33.40
2023-04-29T14:28:18.419Z,32.42
2023-04-29T14:30:47.093Z,32.80
2023-04-29T14:33:18.214Z,32.72
2023-04-29T14:35:46.315Z,33.21
2023-04-29T14:38:13.687Z,33.80
2023-04-29T14:40:41.543Z,34.40
2023-04-29T14:43:09.457Z,34.07
2023-04-29T14:45:37.734Z,34.43
2023-04-29T14:48:05.862Z,34.61
2023-04-29T14:50:33.789Z,35.12
2023-04-29T14:53:01.571Z,35.58
2023-04-29T14:55:30.853Z,36.90
2023-04-29T14:57:59.314Z,37.67
2023-04-29T15:00:32.842Z,36.71
2023-04-29T15:03:03.599Z,36.31
2023-04-29T15:05:31.170Z,36.86
2023-04-29T15:08:00.304Z,37.65
2023-04-29T15:10:28.347Z,38.15
2023-04-29T15:12:56.034Z,38.50
2023-04-29T15:15:23.461Z,38.69
2023-04-29T15:17:54.274Z,38.69
2023-04-29T15:20:21.752Z,39.37
2023-04-29T15:22:49.684Z,39.17
2023-04-29T15:25:17.536Z,39.14
2023-04-29T15:27:45.649Z,40.38
2023-04-29T15:30:15.618Z,40.43
2023-04-29T15:32:43.168Z,41.08
2023-04-29T15:35:10.381Z,41.38
2023-04-29T15:37:38.339Z,41.02
2023-04-29T15:40:09.249Z,41.70
2023-04-29T15:42:37.199Z,41.52
2023-04-29T15:45:09.756Z,42.26
2023-04-29T15:47:37.714Z,42.97
2023-04-29T15:50:07.632Z,42.14
2023-04-29T15:52:35.292Z,43.59
2023-04-29T15:55:03.148Z,43.89
2023-04-29T15:57:30.920Z,43.78
2023-04-29T15:59:58.795Z,44.77
2023-04-29T16:02:26.106Z,44.61
2023-04-29T16:04:54.080Z,45.20
2023-04-29T16:07:21.992Z,45.44
2023-04-29T16:09:49.802Z,45.34
2023-04-29T16:12:18.325Z,45.78
2023-04-29T16:14:45.992Z,44.75
2023-04-29T16:17:13.981Z,45.51
2023-04-29T16:19:41.910Z,46.33
2023-04-29T16:22:09.762Z,45.49
2023-04-29T16:24:37.612Z,46.11
2023-04-29T16:27:05.540Z,46.67
2023-04-29T16:29:32.638Z,46.40
2023-04-29T16:32:00.252Z,46.83
2023-04-29T16:34:28.214Z,46.98
2023-04-29T16:36:56.391Z,47.35
2023-04-29T16:39:24.824Z,47.48
2023-04-29T16:41:52.615Z,48.53
2023-04-29T16:44:20.347Z,48.98
2023-04-29T16:46:47.503Z,49.10
2023-04-29T16:49:18.003Z,48.64
2023-04-29T16:51:45.970Z,49.52
2023-04-29T16:54:13.889Z,48.87
2023-04-29T16:56:41.723Z,48.81
2023-04-29T16:59:11.307Z,48.81
2023-04-29T17:01:39.088Z,48.87
2023-04-29T17:04:08.914Z,48.81
2023-04-29T17:06:38.291Z,48.95
2023-04-29T17:09:05.089Z,48.15
2023-04-29T17:11:33.333Z,47.73
2023-04-29T17:14:00.905Z,48.77
2023-04-29T17:16:30.095Z,49.89
2023-04-29T17:18:58.010Z,50.27
2023-04-29T17:21:26.089Z,50.13
2023-04-29T17:23:53.702Z,50.38
2023-04-29T17:26:21.644Z,50.86
2023-04-29T17:28:49.635Z,51.56
2023-04-29T17:31:17.176Z,51.27
2023-04-29T17:33:54.881Z,50.89
2023-04-29T17:36:24.979Z,51.54
2023-04-29T17:38:53.307Z,51.83
2023-04-29T17:41:21.147Z,52.69
2023-04-29T17:43:48.691Z,53.44
2023-04-29T17:46:16.621Z,54.33
2023-04-29T17:48:45.337Z,54.56
2023-04-29T17:51:13.293Z,55.77
2023-04-29T17:53:40.744Z,55.97
2023-04-29T17:56:08.680Z,55.75
2023-04-29T17:58:36.160Z,56.14
2023-04-29T18:01:26.512Z,56.47
2023-04-29T18:03:54.355Z,57.10
2023-04-29T18:06:22.385Z,57.25
2023-04-29T18:08:50.293Z,57.94
2023-04-29T18:11:18.162Z,58.05
2023-04-29T18:13:46.918Z,58.70
2023-04-29T18:16:14.840Z,59.53
2023-04-29T18:18:42.381Z,59.13
2023-04-29T18:21:10.324Z,58.89
2023-04-29T18:23:39.114Z,60.47
2023-04-29T18:26:06.575Z,61.28
2023-04-29T18:28:34.090Z,61.29
2023-04-29T18:31:01.474Z,62.06
2023-04-29T18:33:30.965Z,62.51
2023-04-29T18:35:58.520Z,62.93
2023-04-29T18:38:26.091Z,63.67
2023-04-29T18:40:54.519Z,64.36
2023-04-29T18:43:24.700Z,64.59
2023-04-29T18:45:52.449Z,65.48
2023-04-29T18:48:20.583Z,66.34
2023-04-29T18:50:48.160Z,66.54
2023-04-29T18:53:16.117Z,66.81
2023-04-29T18:55:44.327Z,67.26
2023-04-29T18:58:12.171Z,67.80
2023-04-29T19:00:39.956Z,67.67
2023-04-29T19:03:07.452Z,68.13
2023-04-29T19:05:35.223Z,68.64
2023-04-29T19:08:02.779Z,68.75
2023-04-29T19:10:30.621Z,69.13
2023-04-29T19:12:58.449Z,69.18
2023-04-29T19:15:28.134Z,69.83
2023-04-29T19:17:58.499Z,70.34
2023-04-29T19:20:25.864Z,70.55
2023-04-29T19:22:53.486Z,70.84
2023-04-29T19:25:22.106Z,71.32
2023-04-29T19:27:51.128Z,71.92
2023-04-29T19:30:19.204Z,72.29
2023-04-29T19:32:47.024Z,73.16
2023-04-29T19:35:14.620Z,73.05
2023-04-29T19:37:42.679Z,73.60
2023-04-29T19:40:11.755Z,73.73
2023-04-29T19:42:40.489Z,73.90
2023-04-29T19:45:12.566Z,74.26
2023-04-29T19:47:40.695Z,75.15
2023-04-29T19:50:09.671Z,75.51
2023-04-29T19:52:37.356Z,75.57
2023-04-29T19:55:05.922Z,75.50
2023-04-29T19:57:34.165Z,76.06
2023-04-29T20:00:02.290Z,76.69
2023-04-29T20:02:30.601Z,76.58
2023-04-29T20:04:58.584Z,76.91
2023-04-29T20:07:26.589Z,77.41
2023-04-29T20:09:54.569Z,77.94
2023-04-29T20:12:22.559Z,78.68
2023-04-29T20:14:50.364Z,79.16
2023-04-29T20:17:18.295Z,79.49
2023-04-29T20:19:45.941Z,79.54
2023-04-29T20:22:13.519Z,79.02
2023-04-29T20:24:41.672Z,78.53
2023-04-29T20:27:09.769Z,77.22
2023-04-29T20:29:37.358Z,76.84
2023-04-29T20:32:06.164Z,77.16
2023-04-29T20:34:34.117Z,76.56
2023-04-29T20:37:06.971Z,76.55
2023-04-29T20:39:34.558Z,76.95
2023-04-29T20:42:03.148Z,76.81
2023-04-29T20:44:30.972Z,77.63
2023-04-29T20:46:58.489Z,78.13
2023-04-29T20:49:26.383Z,79.20
2023-04-29T20:51:53.941Z,80.00
2023-04-29T20:54:21.595Z,80.88
2023-04-29T20:56:49.474Z,82.12
2023-04-29T20:59:17.707Z,83.54
2023-04-29T21:01:46.423Z,84.67
2023-04-29T21:04:14.455Z,85.52
2023-04-29T21:06:45.282Z,86.52
2023-04-29T21:09:12.740Z,87.07
2023-04-29T21:11:40.726Z,87.20
2023-04-29T21:14:08.591Z,87.17
2023-04-29T21:16:36.143Z,88.01
2023-04-29T21:19:04.034Z,88.85
2023-04-29T21:21:31.818Z,89.00
2023-04-29T21:23:59.753Z,90.04
2023-04-29T21:26:27.675Z,90.97
2023-04-29T21:28:55.718Z,91.20
2023-04-29T21:31:23.698Z,91.68
2023-04-29T21:33:56.557Z,92.00
2023-04-29T21:36:24.562Z,92.00
2023-04-29T21:38:54.312Z,92.96
2023-04-29T21:41:28.879Z,93.83
2023-04-29T21:43:58.272Z,94.37
2023-04-29T21:46:27.789Z,94.99
2023-04-29T21:48:56.333Z,95.30
2023-04-29T21:51:23.361Z,95.63
2023-04-29T21:53:51.313Z,95.61
2023-04-29T21:56:18.991Z,95.51
2023-04-29T21:58:46.539Z,95.28
2023-04-29T22:01:27.220Z,95.81
2023-04-29T22:03:57.300Z,96.04
2023-04-29T22:06:27.575Z,96.57
2023-04-29T22:08:55.032Z,96.83
2023-04-29T22:11:22.641Z,97.34
2023-04-29T22:13:50.378Z,97.97
2023-04-29T22:16:19.165Z,98.05
2023-04-29T22:18:46.352Z,98.30
2023-04-29T22:21:13.920Z,98.47
2023-04-29T22:23:44.026Z,98.57
2023-04-29T22:26:11.917Z,98.75
2023-04-29T22:28:39.545Z,98.87
2023-04-29T22:31:07.021Z,99.35
2023-04-29T22:33:35.180Z,98.93
2023-04-29T22:36:05.819Z,99.29
2023-04-29T22:38:33.297Z,99.73
2023-04-29T22:41:01.831Z,98.90
2023-04-29T22:43:30.008Z,98.65
2023-04-29T22:45:57.555Z,98.25
2023-04-29T22:48:27.596Z,98.44
2023-04-29T22:50:55.290Z,99.05
2023-04-29T22:53:22.531Z,98.75
2023-04-29T22:55:53.650Z,98.50
2023-04-29T22:58:21.828Z,98.29
2023-04-29T23:00:56.957Z,97.86
2023-04-29T23:03:24.212Z,98.24
2023-04-29T23:05:51.788Z,97.90
2023-04-29T23:08:19.387Z,98.82
2023-04-29T23:10:49.717Z,99.13
2023-04-29T23:13:17.260Z,99.28
2023-04-29T23:15:45.393Z,99.28
2023-04-29T23:18:13.065Z,99.59
2023-04-29T23:20:40.972Z,99.49
2023-04-29T23:23:08.734Z,98.78
2023-04-29T23:25:36.566Z,98.71
2023-04-29T23:28:04.824Z,97.73
2023-04-29T23:30:33.006Z,97.36
2023-04-29T23:33:00.548Z,96.18
2023-04-29T23:35:28.479Z,95.57
2023-04-29T23:37:56.355Z,95.04
2023-04-29T23:40:24.034Z,94.96
2023-04-29T23:42:52.108Z,94.36
2023-04-29T23:45:19.941Z,94.45
2023-04-29T23:47:48.203Z,94.35
2023-04-29T23:50:15.781Z,94.27
2023-04-29T23:52:43.593Z,92.89
2023-04-29T23:55:12.193Z,92.71
2023-04-29T23:57:40.091Z,92.78
